createdAt,value
2019-04-05T00:01:52.820Z,99312.86
2019-04-05T00:04:32.304Z,99316.69
2019-04-05T00:07:09.057Z,99314.08
2019-04-05T00:09:41.064Z,99319.75
2019-04-05T00:12:17.348Z,99320.23
2019-04-05T00:14:56.821Z,99320.15
2019-04-05T00:17:30.885Z,99318.09
2019-04-05T00:20:06.733Z,99323.66
2019-04-05T00:22:56.585Z,99319.30
2019-04-05T00:25:30.728Z,99327.12
2019-04-05T00:28:06.190Z,99327.58
2019-04-05T00:30:42.362Z,99326.27
2019-04-05T00:33:17.443Z,99325.06
2019-04-05T00:35:56.921Z,99328.13
2019-04-05T00:38:30.816Z,99333.86
2019-04-05T00:41:05.105Z,99325.63
2019-04-05T00:43:36.964Z,99330.40
2019-04-05T00:46:11.942Z,99329.55
2019-04-05T00:48:48.946Z,99327.03
2019-04-05T00:51:26.549Z,99325.33
2019-04-05T00:54:05.241Z,99321.41
2019-04-05T00:56:39.184Z,99314.44
2019-04-05T00:59:13.482Z,99303.66
2019-04-05T01:01:52.103Z,99297.14
2019-04-05T01:04:28.814Z,99305.88
2019-04-05T01:07:00.480Z,99309.28
2019-04-05T01:09:32.291Z,99305.70
2019-04-05T01:12:04.387Z,99314.28
2019-04-05T01:14:36.086Z,99309.41
2019-04-05T01:17:08.648Z,99303.73
2019-04-05T01:19:42.297Z,99303.19
2019-04-05T01:22:16.793Z,99311.41
2019-04-05T01:24:48.390Z,99313.17
2019-04-05T01:27:20.883Z,99302.43
2019-04-05T01:29:52.503Z,99293.51
2019-04-05T01:32:24.619Z,99292.02
2019-04-05T01:34:57.822Z,99298.20
2019-04-05T01:37:29.663Z,99300.87
2019-04-05T01:40:01.951Z,99300.87
2019-04-05T01:42:33.613Z,99291.83
2019-04-05T01:45:06.204Z,99298.87
2019-04-05T01:47:38.240Z,99296.77
2019-04-05T01:50:10.689Z,99284.27
2019-04-05T01:52:44.729Z,99294.82
2019-04-05T01:55:16.797Z,99298.03
2019-04-05T01:57:48.471Z,99298.94
2019-04-05T02:00:20.262Z,99301.16
2019-04-05T02:02:52.347Z,99297.78
2019-04-05T02:05:24.769Z,99307.03
2019-04-05T02:07:56.684Z,99311.48
2019-04-05T02:10:28.647Z,99323.61
2019-04-05T02:13:01.485Z,99331.09
2019-04-05T02:15:34.795Z,99334.21
2019-04-05T02:18:06.940Z,99328.18
2019-04-05T02:20:39.285Z,99324.97
2019-04-05T02:23:11.014Z,99323.97
2019-04-05T02:25:42.888Z,99332.94
2019-04-05T02:28:14.814Z,99336.30
2019-04-05T02:30:46.839Z,99339.30
2019-04-05T02:33:19.022Z,99340.16
2019-04-05T02:35:50.662Z,99334.88
2019-04-05T02:38:22.669Z,99339.61
2019-04-05T02:40:58.816Z,99342.77
2019-04-05T02:43:34.566Z,99348.89
2019-04-05T02:46:22.091Z,99353.20
2019-04-05T02:48:43.718Z,99359.66
2019-04-05T02:51:19.657Z,99353.96
2019-04-05T02:53:53.087Z,99362.58
2019-04-05T02:56:26.249Z,99363.43
2019-04-05T02:58:58.767Z,99356.85
2019-04-05T03:01:31.158Z,99364.92
2019-04-05T03:04:03.700Z,99354.05
2019-04-05T03:06:35.735Z,99356.45
2019-04-05T03:09:08.710Z,99343.34
2019-04-05T03:11:42.309Z,99352.47
2019-04-05T03:14:15.730Z,99355.59
2019-04-05T03:16:50.635Z,99355.54
2019-04-05T03:19:27.961Z,99350.77
2019-04-05T03:22:08.033Z,99350.77
2019-04-05T03:24:42.938Z,99335.63
2019-04-05T03:27:22.873Z,99336.54
2019-04-05T03:29:55.172Z,99342.30
2019-04-05T03:32:27.539Z,99337.03
2019-04-05T03:35:02.332Z,99322.59
2019-04-05T03:37:34.081Z,99313.86
2019-04-05T03:40:06.806Z,99322.92
2019-04-05T03:42:38.665Z,99320.71
2019-04-05T03:45:10.778Z,99313.70
2019-04-05T03:47:43.156Z,99315.41
2019-04-05T03:50:16.040Z,99322.38
2019-04-05T03:52:47.649Z,99327.14
2019-04-05T03:55:20.155Z,99327.42
2019-04-05T03:57:52.563Z,99325.63
2019-04-05T04:00:24.641Z,99322.05
2019-04-05T04:02:56.247Z,99322.45
2019-04-05T04:05:28.477Z,99321.91
2019-04-05T04:08:00.373Z,99321.55
2019-04-05T04:10:32.242Z,99322.05
2019-04-05T04:13:04.226Z,99319.91
2019-04-05T04:15:35.859Z,99315.14
2019-04-05T04:18:07.887Z,99314.74
2019-04-05T04:25:56.027Z,99325.72
2019-04-05T04:28:28.269Z,99330.94
2019-04-05T04:31:00.010Z,99326.30
2019-04-05T04:33:32.926Z,99331.52
2019-04-05T04:36:05.690Z,99337.67
2019-04-05T04:38:37.815Z,99339.03
2019-04-05T04:41:09.835Z,99345.16
2019-04-05T04:43:41.872Z,99342.61
2019-04-05T04:46:14.227Z,99333.48
2019-04-05T04:48:46.605Z,99336.54
2019-04-05T04:51:18.714Z,99337.73
2019-04-05T04:53:50.662Z,99338.89
2019-04-05T04:56:23.106Z,99331.40
2019-04-05T04:58:54.890Z,99333.55
2019-04-05T05:01:27.408Z,99337.86
2019-04-05T05:03:59.524Z,99342.98
2019-04-05T05:06:31.783Z,99341.62
2019-04-05T05:09:06.359Z,99343.33
2019-04-05T05:11:38.473Z,99352.45
2019-04-05T05:14:10.497Z,99352.52
2019-04-05T05:16:42.130Z,99364.31
2019-04-05T05:19:14.048Z,99352.21
2019-04-05T05:21:46.121Z,99362.10
2019-04-05T05:24:19.267Z,99367.78
2019-04-05T05:26:51.186Z,99374.30
2019-04-05T05:29:22.968Z,99370.84
2019-04-05T05:31:55.359Z,99375.09
2019-04-05T05:34:27.125Z,99370.58
2019-04-05T05:36:58.835Z,99358.32
2019-04-05T05:39:30.819Z,99352.50
2019-04-05T05:42:02.467Z,99356.75
2019-04-05T05:44:34.216Z,99353.20
2019-04-05T05:47:05.857Z,99354.50
2019-04-05T05:49:37.960Z,99362.73
2019-04-05T05:52:10.116Z,99356.75
2019-04-05T05:54:41.952Z,99360.12
2019-04-05T05:57:13.567Z,99360.52
2019-04-05T05:59:45.352Z,99365.98
2019-04-05T06:02:17.000Z,99359.85
2019-04-05T06:04:48.711Z,99367.73
2019-04-05T06:07:20.652Z,99366.98
2019-04-05T06:09:52.307Z,99367.73
2019-04-05T06:12:23.974Z,99364.67
2019-04-05T06:14:55.647Z,99362.86
2019-04-05T06:17:27.453Z,99350.27
2019-04-05T06:19:59.188Z,99350.95
2019-04-05T06:22:30.801Z,99342.55
2019-04-05T06:25:02.771Z,99340.25
2019-04-05T06:27:35.506Z,99340.70
2019-04-05T06:30:07.980Z,99342.25
2019-04-05T06:32:39.600Z,99334.27
2019-04-05T06:35:11.731Z,99329.67
2019-04-05T06:37:43.478Z,99325.15
2019-04-05T06:40:15.162Z,99329.24
2019-04-05T06:42:46.876Z,99325.17
2019-04-05T06:45:19.048Z,99326.19
2019-04-05T06:47:50.665Z,99327.67
2019-04-05T06:50:22.502Z,99323.02
2019-04-05T06:52:54.411Z,99319.33
2019-04-05T06:55:26.081Z,99316.20
2019-04-05T06:57:58.282Z,99324.10
2019-04-05T07:00:31.795Z,99330.50
2019-04-05T07:03:03.514Z,99326.42
2019-04-05T07:05:36.962Z,99322.83
2019-04-05T07:08:08.636Z,99314.83
2019-04-05T07:10:40.414Z,99314.37
2019-04-05T07:13:12.117Z,99307.91
2019-04-05T07:15:43.859Z,99313.46
2019-04-05T07:18:15.998Z,99316.37
2019-04-05T07:20:47.657Z,99321.07
2019-04-05T07:23:19.394Z,99320.00
2019-04-05T07:25:51.323Z,99331.13
2019-04-05T07:28:25.103Z,99334.40
2019-04-05T07:30:56.611Z,99342.02
2019-04-05T07:33:28.879Z,99343.55
2019-04-05T07:36:03.320Z,99336.84
2019-04-05T07:38:34.101Z,99338.77
2019-04-05T07:41:05.998Z,99336.88
2019-04-05T07:43:41.061Z,99332.39
2019-04-05T07:46:14.575Z,99339.16
2019-04-05T07:48:46.611Z,99337.32
2019-04-05T07:51:18.319Z,99335.71
2019-04-05T07:53:50.129Z,99338.48
2019-04-05T07:56:22.103Z,99340.79
2019-04-05T07:58:54.066Z,99341.47
2019-04-05T08:01:25.886Z,99346.53
2019-04-05T08:03:58.207Z,99339.29
2019-04-05T08:06:30.706Z,99344.22
2019-04-05T08:09:10.666Z,99346.98
2019-04-05T08:11:45.480Z,99336.23
2019-04-05T08:14:18.812Z,99338.82
2019-04-05T08:16:51.217Z,99334.82
2019-04-05T08:19:23.121Z,99338.92
2019-04-05T08:21:54.813Z,99339.59
2019-04-05T08:24:26.660Z,99340.64
2019-04-05T08:26:58.420Z,99341.70
2019-04-05T08:29:30.119Z,99347.53
2019-04-05T08:32:13.882Z,99346.82
2019-04-05T08:34:35.259Z,99353.58
2019-04-05T08:37:06.988Z,99348.47
2019-04-05T08:39:39.527Z,99350.37
2019-04-05T08:42:11.238Z,99350.61
2019-04-05T08:44:42.884Z,99352.50
2019-04-05T08:47:14.743Z,99357.10
2019-04-05T08:49:46.398Z,99355.99
2019-04-05T08:52:18.086Z,99357.81
2019-04-05T08:54:50.280Z,99357.75
2019-04-05T08:57:22.263Z,99355.92
2019-04-05T08:59:53.955Z,99350.72
2019-04-05T09:02:26.962Z,99354.11
2019-04-05T09:04:58.766Z,99337.64
2019-04-05T09:07:30.777Z,99344.81
2019-04-05T09:10:02.803Z,99338.98
2019-04-05T09:12:34.503Z,99339.56
2019-04-05T09:15:06.690Z,99332.19
2019-04-05T09:17:38.505Z,99330.72
2019-04-05T09:20:10.873Z,99332.95
2019-04-05T09:22:42.813Z,99328.66
2019-04-05T09:25:14.819Z,99328.14
2019-04-05T09:27:46.435Z,99323.27
2019-04-05T09:30:18.317Z,99319.45
2019-04-05T09:32:50.039Z,99318.80
2019-04-05T09:35:21.865Z,99321.14
2019-04-05T09:37:53.721Z,99311.28
2019-04-05T09:40:25.590Z,99314.93
2019-04-05T09:42:57.254Z,99312.58
2019-04-05T09:45:29.226Z,99313.81
2019-04-05T09:48:00.949Z,99302.80
2019-04-05T09:50:32.729Z,99300.27
2019-04-05T09:53:04.620Z,99293.78
2019-04-05T09:55:36.504Z,99300.17
2019-04-05T09:58:10.098Z,99290.75
2019-04-05T10:00:41.681Z,99295.70
2019-04-05T10:03:14.635Z,99293.14
2019-04-05T10:05:46.406Z,99300.09
2019-04-05T10:08:18.482Z,99287.33
2019-04-05T10:10:51.065Z,99291.15
2019-04-05T10:13:22.981Z,99289.27
2019-04-05T10:15:54.847Z,99286.44
2019-04-05T10:18:27.011Z,99284.81
2019-04-05T10:20:58.609Z,99280.09
2019-04-05T10:23:30.642Z,99286.58
2019-04-05T10:26:03.450Z,99281.39
2019-04-05T10:28:35.265Z,99280.42
2019-04-05T10:31:06.919Z,99272.38
2019-04-05T10:33:38.762Z,99281.72
2019-04-05T10:36:10.479Z,99271.50
2019-04-05T10:38:42.317Z,99278.83
2019-04-05T10:41:13.940Z,99271.18
2019-04-05T10:43:45.754Z,99268.36
2019-04-05T10:46:17.374Z,99269.98
2019-04-05T10:48:49.046Z,99261.23
2019-04-05T10:51:21.087Z,99260.11
2019-04-05T10:53:52.725Z,99254.89
2019-04-05T10:56:24.601Z,99245.50
2019-04-05T10:58:56.693Z,99252.45
2019-04-05T11:01:28.656Z,99247.56
2019-04-05T11:04:01.895Z,99247.94
2019-04-05T11:06:33.554Z,99247.84
2019-04-05T11:09:07.683Z,99242.14
2019-04-05T11:11:39.361Z,99239.37
2019-04-05T11:14:13.815Z,99240.31
2019-04-05T11:16:57.464Z,99248.22
2019-04-05T11:19:18.909Z,99247.41
2019-04-05T11:21:52.402Z,99239.22
2019-04-05T11:24:24.759Z,99244.87
2019-04-05T11:26:56.489Z,99243.12
2019-04-05T11:29:28.469Z,99243.81
2019-04-05T11:32:00.188Z,99247.61
2019-04-05T11:34:32.492Z,99236.37
2019-04-05T11:37:04.696Z,99235.22
2019-04-05T11:39:37.146Z,99231.48
2019-04-05T11:42:08.916Z,99228.02
2019-04-05T11:44:44.363Z,99232.80
2019-04-05T11:47:17.241Z,99233.66
2019-04-05T11:49:50.604Z,99231.58
2019-04-05T11:52:22.460Z,99231.77
2019-04-05T11:54:55.719Z,99238.57
2019-04-05T11:57:27.779Z,99235.88
2019-04-05T11:59:59.947Z,99250.34
2019-04-05T12:02:38.050Z,99245.55
2019-04-05T12:05:10.816Z,99252.67
2019-04-05T12:07:43.201Z,99243.14
2019-04-05T12:10:18.738Z,99251.95
2019-04-05T12:12:48.871Z,99249.28
2019-04-05T12:15:20.656Z,99246.05
2019-04-05T12:17:52.537Z,99239.70
2019-04-05T12:20:24.355Z,99238.47
2019-04-05T12:22:56.026Z,99235.50
2019-04-05T12:25:28.215Z,99232.02
2019-04-05T12:28:06.719Z,99230.80
2019-04-05T12:30:33.404Z,99234.74
2019-04-05T12:33:13.718Z,99228.54
2019-04-05T12:35:38.569Z,99226.38
2019-04-05T12:38:10.228Z,99221.49
2019-04-05T12:40:42.069Z,99224.84
2019-04-05T12:43:14.382Z,99219.42
2019-04-05T12:45:46.271Z,99226.79
2019-04-05T12:48:18.284Z,99224.16
2019-04-05T12:51:00.517Z,99221.25
2019-04-05T12:53:24.662Z,99221.47
2019-04-05T12:55:57.308Z,99226.57
2019-04-05T12:58:29.037Z,99230.52
2019-04-05T13:01:01.301Z,99219.71
2019-04-05T13:03:33.115Z,99219.24
2019-04-05T13:06:04.897Z,99219.62
2019-04-05T13:08:36.709Z,99220.52
2019-04-05T13:11:08.633Z,99214.57
2019-04-05T13:13:40.704Z,99209.06
2019-04-05T13:16:12.448Z,99208.63
2019-04-05T13:18:44.854Z,99206.21
2019-04-05T13:21:16.559Z,99201.52
2019-04-05T13:23:48.449Z,99198.03
2019-04-05T13:26:20.412Z,99193.72
2019-04-05T13:28:52.129Z,99191.45
2019-04-05T13:31:23.899Z,99195.50
2019-04-05T13:33:55.734Z,99198.26
2019-04-05T13:36:27.559Z,99188.52
2019-04-05T13:39:00.393Z,99192.87
2019-04-05T13:41:32.554Z,99188.27
2019-04-05T13:44:04.801Z,99191.86
2019-04-05T13:46:39.106Z,99190.42
2019-04-05T13:49:10.955Z,99191.18
2019-04-05T13:51:43.034Z,99188.64
2019-04-05T13:54:15.193Z,99194.59
2019-04-05T13:56:47.086Z,99183.44
2019-04-05T13:59:18.930Z,99186.63
2019-04-05T14:01:51.618Z,99181.94
2019-04-05T14:04:23.488Z,99180.75
2019-04-05T14:06:58.146Z,99178.58
2019-04-05T14:09:31.630Z,99180.67
2019-04-05T14:12:04.185Z,99174.41
2019-04-05T14:14:37.404Z,99180.23
2019-04-05T14:17:09.214Z,99182.11
2019-04-05T14:19:41.147Z,99181.27
2019-04-05T14:22:12.826Z,99183.64
2019-04-05T14:24:44.848Z,99184.95
2019-04-05T14:27:16.988Z,99190.30
2019-04-05T14:29:49.603Z,99186.95
2019-04-05T14:32:22.090Z,99176.91
2019-04-05T14:34:54.960Z,99172.11
2019-04-05T14:37:26.934Z,99175.21
2019-04-05T14:39:58.699Z,99173.42
2019-04-05T14:42:31.224Z,99175.93
2019-04-05T14:45:03.029Z,99174.62
2019-04-05T14:47:35.173Z,99175.67
2019-04-05T14:50:08.094Z,99173.52
2019-04-05T14:52:39.939Z,99170.89
2019-04-05T14:55:12.548Z,99173.98
2019-04-05T14:57:44.472Z,99170.42
2019-04-05T15:00:17.482Z,99168.35
2019-04-05T15:02:49.177Z,99167.63
2019-04-05T15:05:21.141Z,99166.84
2019-04-05T15:07:55.000Z,99166.84
2019-04-05T15:10:26.587Z,99159.05
2019-04-05T15:13:00.253Z,99166.41
2019-04-05T15:15:37.163Z,99165.38
2019-04-05T15:18:07.904Z,99162.47
2019-04-05T15:20:40.280Z,99166.94
2019-04-05T15:23:14.082Z,99167.52
2019-04-05T15:25:49.314Z,99170.45
2019-04-05T15:28:19.244Z,99166.23
2019-04-05T15:30:51.167Z,99166.32
2019-04-05T15:33:22.986Z,99162.97
2019-04-05T15:35:58.336Z,99166.91
2019-04-05T15:38:31.404Z,99167.75
2019-04-05T15:41:01.574Z,99160.72
2019-04-05T15:43:33.364Z,99168.48
2019-04-05T15:46:05.265Z,99171.11
2019-04-05T15:48:37.178Z,99173.48
2019-04-05T15:51:08.831Z,99170.69
2019-04-05T15:53:40.737Z,99166.45
2019-04-05T15:56:12.795Z,99167.52
2019-04-05T15:58:44.595Z,99168.83
2019-04-05T16:01:17.420Z,99162.26
2019-04-05T16:03:49.210Z,99167.39
2019-04-05T16:06:21.086Z,99164.77
2019-04-05T16:08:52.789Z,99171.45
2019-04-05T16:11:24.738Z,99170.70
2019-04-05T16:13:56.857Z,99178.20
2019-04-05T16:16:29.132Z,99173.88
2019-04-05T16:19:01.176Z,99172.57
2019-04-05T16:21:32.782Z,99168.16
2019-04-05T16:24:04.648Z,99173.53
2019-04-05T16:26:36.864Z,99172.78
2019-04-05T16:29:08.798Z,99185.54
2019-04-05T16:31:40.754Z,99182.91
2019-04-05T16:34:12.762Z,99184.81
2019-04-05T16:36:44.449Z,99187.44
2019-04-05T16:39:19.387Z,99195.78
2019-04-05T16:41:51.855Z,99192.31
2019-04-05T16:44:23.682Z,99189.86
2019-04-05T16:46:55.375Z,99195.50
2019-04-05T16:49:27.095Z,99192.02
2019-04-05T16:51:59.092Z,99194.27
2019-04-05T16:54:31.144Z,99191.77
2019-04-05T16:57:03.384Z,99195.70
2019-04-05T16:59:35.220Z,99194.10
2019-04-05T17:02:07.140Z,99186.81
2019-04-05T17:04:39.080Z,99196.55
2019-04-05T17:07:10.844Z,99199.39
2019-04-05T17:09:42.551Z,99199.09
2019-04-05T17:12:14.285Z,99198.45
2019-04-05T17:14:47.280Z,99199.39
2019-04-05T17:17:19.086Z,99202.56
2019-04-05T17:19:51.105Z,99199.09
2019-04-05T17:22:22.851Z,99200.79
2019-04-05T17:24:54.846Z,99201.25
2019-04-05T17:27:26.660Z,99201.72
2019-04-05T17:29:58.526Z,99204.34
2019-04-05T17:32:30.477Z,99208.75
2019-04-05T17:35:02.673Z,99197.91
2019-04-05T17:37:34.798Z,99203.88
2019-04-05T17:40:07.462Z,99201.72
2019-04-05T17:42:39.218Z,99204.81
2019-04-05T17:45:11.525Z,99207.94
2019-04-05T17:47:43.460Z,99208.41
2019-04-05T17:50:30.226Z,99203.16
2019-04-05T17:53:11.926Z,99205.87
2019-04-05T17:55:36.595Z,99208.31
2019-04-05T17:58:08.912Z,99208.48
2019-04-05T18:00:40.824Z,99209.24
2019-04-05T18:03:12.978Z,99205.51
2019-04-05T18:05:45.011Z,99217.88
2019-04-05T18:08:17.256Z,99215.83
2019-04-05T18:10:49.283Z,99219.20
2019-04-05T18:13:21.314Z,99218.99
2019-04-05T18:15:53.345Z,99224.36
2019-04-05T18:18:24.473Z,99223.80
2019-04-05T18:20:54.150Z,99223.50
2019-04-05T18:23:26.142Z,99221.34
2019-04-05T18:25:58.235Z,99225.09
2019-04-05T18:28:30.065Z,99226.61
2019-04-05T18:31:01.882Z,99221.44
2019-04-05T18:33:33.933Z,99223.30
2019-04-05T18:36:05.715Z,99228.75
2019-04-05T18:38:38.223Z,99222.81
2019-04-05T18:41:10.145Z,99228.26
2019-04-05T18:43:41.980Z,99231.08
2019-04-05T18:46:13.730Z,99228.07
2019-04-05T18:48:46.331Z,99226.76
2019-04-05T18:51:18.128Z,99226.67
2019-04-05T18:53:49.963Z,99231.55
2019-04-05T18:56:21.664Z,99232.85
2019-04-05T18:58:53.486Z,99232.91
2019-04-05T19:01:25.329Z,99227.73
2019-04-05T19:03:57.262Z,99241.59
2019-04-05T19:06:29.055Z,99240.48
2019-04-05T19:09:00.874Z,99247.58
2019-04-05T19:11:32.916Z,99240.83
2019-04-05T19:14:04.890Z,99244.00
2019-04-05T19:16:36.992Z,99238.09
2019-04-05T19:19:09.458Z,99234.82
2019-04-05T19:21:41.592Z,99237.83
2019-04-05T19:24:13.359Z,99244.27
2019-04-05T19:26:45.296Z,99240.17
2019-04-05T19:29:17.179Z,99243.07
2019-04-05T19:49:44.958Z,99247.30
2019-04-05T19:52:16.764Z,99250.31
2019-04-05T19:54:48.564Z,99248.15
2019-04-05T19:57:22.159Z,99244.05
2019-04-05T19:59:54.021Z,99245.64
2019-04-05T20:02:25.708Z,99241.66
2019-04-05T20:04:57.746Z,99236.67
2019-04-05T20:07:29.530Z,99242.77
2019-04-05T20:10:01.424Z,99241.11
2019-04-05T20:12:33.162Z,99242.77
2019-04-05T20:15:05.717Z,99240.61
2019-04-05T20:17:37.742Z,99238.15
2019-04-05T20:20:10.860Z,99241.78
2019-04-05T20:22:43.024Z,99236.81
2019-04-05T20:25:14.997Z,99245.06
2019-04-05T20:27:46.947Z,99245.45
2019-04-05T20:30:18.685Z,99246.67
2019-04-05T20:32:50.560Z,99242.62
2019-04-05T20:35:22.384Z,99246.02
2019-04-05T20:37:55.288Z,99240.77
2019-04-05T20:40:27.052Z,99242.97
2019-04-05T20:43:00.001Z,99248.26
2019-04-05T20:45:32.101Z,99245.91
2019-04-05T20:48:03.818Z,99240.48
2019-04-05T20:50:35.614Z,99243.84
2019-04-05T20:53:07.588Z,99247.47
2019-04-05T20:55:39.264Z,99244.95
2019-04-05T20:58:10.973Z,99247.47
2019-04-05T21:00:43.015Z,99258.26
2019-04-05T21:03:14.730Z,99255.25
2019-04-05T21:05:46.480Z,99251.32
2019-04-05T21:08:19.327Z,99255.98
2019-04-05T21:10:51.062Z,99254.68
2019-04-05T21:13:22.817Z,99252.91
2019-04-05T21:15:54.990Z,99250.09
2019-04-05T21:18:27.335Z,99254.41
2019-04-05T21:20:59.064Z,99249.62
2019-04-05T21:23:31.510Z,99247.00
2019-04-05T21:26:03.712Z,99243.53
2019-04-05T21:28:35.863Z,99245.50
2019-04-05T21:31:09.276Z,99246.42
2019-04-05T21:33:41.372Z,99255.84
2019-04-05T21:36:13.057Z,99250.79
2019-04-05T21:38:45.431Z,99249.02
2019-04-05T21:41:17.261Z,99255.38
2019-04-05T21:43:49.295Z,99254.84
2019-04-05T21:46:21.004Z,99256.69
2019-04-05T21:48:52.913Z,99259.12
2019-04-05T21:51:24.920Z,99256.84
2019-04-05T21:53:57.366Z,99263.50
2019-04-05T21:56:29.210Z,99263.39
2019-04-05T21:59:00.951Z,99266.02
2019-04-05T22:01:32.714Z,99265.63
2019-04-05T22:04:04.892Z,99264.70
2019-04-05T22:06:36.712Z,99256.77
2019-04-05T22:09:11.002Z,99259.31
2019-04-05T22:11:43.700Z,99257.89
2019-04-05T22:14:15.385Z,99257.81
2019-04-05T22:16:47.589Z,99259.12
2019-04-05T22:19:19.508Z,99261.36
2019-04-05T22:21:51.321Z,99260.16
2019-04-05T22:24:23.084Z,99257.23
2019-04-05T22:26:55.799Z,99260.39
2019-04-05T22:29:27.505Z,99253.95
2019-04-05T22:31:59.284Z,99260.96
2019-04-05T22:34:31.199Z,99257.11
2019-04-05T22:37:03.065Z,99255.98
2019-04-05T22:39:34.694Z,99256.14
2019-04-05T22:42:07.357Z,99264.73
2019-04-05T22:44:41.534Z,99267.92
2019-04-05T22:47:12.379Z,99271.55
2019-04-05T22:49:44.337Z,99264.14
2019-04-05T22:52:16.021Z,99269.77
2019-04-05T22:54:47.718Z,99268.00
2019-04-05T22:57:20.104Z,99269.70
2019-04-05T22:59:52.034Z,99262.11
2019-04-05T23:02:24.006Z,99269.44
2019-04-05T23:04:55.764Z,99269.05
2019-04-05T23:07:27.495Z,99274.29
2019-04-05T23:10:16.109Z,99270.08
2019-04-05T23:12:55.911Z,99275.78
2019-04-05T23:15:46.437Z,99270.23
2019-04-05T23:18:25.453Z,99272.86
2019-04-05T23:21:04.358Z,99278.88
2019-04-05T23:23:42.226Z,99275.33
2019-04-05T23:26:17.868Z,99275.33
2019-04-05T23:28:52.331Z,99270.16
2019-04-05T23:31:29.703Z,99277.71
2019-04-05T23:34:06.235Z,99275.20
2019-04-05T23:36:46.743Z,99265.80
2019-04-05T23:39:21.928Z,99271.69
2019-04-05T23:41:53.685Z,99266.70
2019-04-05T23:44:26.071Z,99262.92
2019-04-05T23:47:02.941Z,99268.73
2019-04-05T23:49:45.108Z,99266.19
2019-04-05T23:52:17.940Z,99255.20
2019-04-05T23:54:49.748Z,99268.30
2019-04-05T23:57:21.649Z,99258.92
2019-04-05T23:59:54.537Z,99261.27
